• Join FlightAware (Why Join?)
  • Login
  • US Flag 
12:07AM EDT


 

Airport Tracker/Info


-or-


 

Live Flight TrackerFlight Track Log ✈ N6ZQ ✈ 11-Sep-2013 ✈ KRMN - 24J

Flight Track Log - Related Links

Times and Time Zones

All times are in EDT time to prevent confusion due to time zone crossing. See the N6ZQ flight status page for this flight to view local times or setup timezone preferences in your user account.

Time Position Orientation Groundspeed Altitude Reporting Facility
EDT Latitude Longitude Course Direction KTS MPH feet Rate Location/Type
11:57AM 38.3500 -77.3833 142° Southeast 152 175 1,900  Level Potomac TRACON
11:58AM 38.3167 -77.3500 142° Southeast 165 190 2,000  Climbing Potomac TRACON
11:59AM 38.3000 -77.4333 256° West 175 201 2,000 480 Level Potomac TRACON
12:00PM 38.3000 -77.4833 270° West 167 192 3,000 420 Climbing Potomac TRACON
12:01PM 38.2833 -77.5500 252° West 185 213 2,900  Descending Potomac TRACON
12:02PM 38.2667 -77.6000 247° West 183 211 3,000  Climbing Potomac TRACON
12:03PM 38.2508 -77.6964 258° West 190 219 2,900 180 Descending Washington Center
12:04PM 38.2392 -77.7542 256° West 178 205 3,600 780 Climbing Washington Center
12:05PM 38.2236 -77.8119 251° West 178 205 4,600 900 Climbing Washington Center
12:06PM 38.2100 -77.8697 253° West 178 205 5,500 1,020 Climbing Washington Center
12:07PM 38.1964 -77.9272 253° West 173 199 6,700 1,020 Climbing Washington Center
12:08PM 38.1644 -77.9633 222° Southwest 166 191 7,600 900 Climbing Washington Center
12:09PM 38.1303 -78.0072 225° Southwest 166 191 8,600 960 Climbing Washington Center
12:10PM 38.0942 -78.0403 216° Southwest 166 191 9,600 900 Climbing Washington Center
12:11PM 38.0600 -78.0761 220° Southwest 166 191 10,400 780 Climbing Washington Center
12:12PM 38.0258 -78.1119 220° Southwest 161 185 11,200 780 Climbing Washington Center
12:13PM 37.9833 -78.1447 211° Southwest 161 185 12,000 360 Climbing Washington Center
12:14PM 37.9469 -78.1908 225° Southwest 170 196 12,000  Level Washington Center
12:15PM 37.9125 -78.2397 228° Southwest 188 216 12,000  Level Washington Center
12:16PM 37.8678 -78.2803 216° Southwest 194 223 12,000  Level Washington Center
12:17PM 37.8272 -78.3261 222° Southwest 194 223 12,000  Level Washington Center
12:18PM 37.7889 -78.3642 218° Southwest 194 223 12,000  Level Washington Center
12:19PM 37.7461 -78.4019 215° Southwest 194 223 12,000  Level Washington Center
12:20PM 37.7014 -78.4422 215° Southwest 194 223 12,000  Level Washington Center
12:21PM 37.6503 -78.4822 212° Southwest 200 230 12,000  Level Washington Center
12:22PM 37.6078 -78.5253 219° Southwest 200 230 12,000  Level Washington Center
12:23PM 37.5631 -78.5628 214° Southwest 200 230 12,000  Level Washington Center
12:24PM 37.5181 -78.6031 215° Southwest 200 230 12,000  Level Washington Center
12:25PM 37.4797 -78.6381 216° Southwest 200 230 12,000  Level Washington Center
12:26PM 37.4369 -78.6756 215° Southwest 200 230 12,000  Level Washington Center
12:27PM 37.3942 -78.7183 218° Southwest 200 230 12,000  Level Washington Center
12:28PM 37.3514 -78.7583 217° Southwest 200 230 12,000  Level Washington Center
12:29PM 37.3044 -78.8008 216° Southwest 200 230 12,000  Level Washington Center
12:30PM 37.2617 -78.8381 215° Southwest 200 230 12,000  Level Washington Center
12:31PM 37.2208 -78.8808 220° Southwest 200 230 12,000  Level Washington Center
12:32PM 37.1781 -78.9233 218° Southwest 200 230 12,000  Level Washington Center
12:33PM 37.1394 -78.9581 216° Southwest 195 224 12,000  Level Washington Center
12:34PM 37.0967 -78.9978 217° Southwest 195 224 12,000  Level Washington Center
12:35PM 37.0536 -79.0403 218° Southwest 195 224 12,000  Level Washington Center
12:36PM 37.0108 -79.0800 217° Southwest 200 230 12,000  Level Washington Center
12:37PM 36.9656 -79.1247 218° Southwest 200 230 12,000  Level Washington Center
12:38PM 36.9247 -79.1642 218° Southwest 200 230 12,000  Level Washington Center
12:39PM 36.8797 -79.2039 215° Southwest 200 230 12,100  Climbing Washington Center
12:40PM 36.8389 -79.2433 218° Southwest 200 230 12,100  Level Washington Center
12:41PM 36.8003 -79.2806 218° Southwest 200 230 12,100  Level Washington Center
12:42PM 36.7594 -79.3200 218° Southwest 200 230 12,100  Level Washington Center
12:43PM 36.7122 -79.3592 214° Southwest 200 230 12,100  Level Washington Center
12:45PM 36.6655 -79.4001 215° Southwest  Level FlightAware Approximate
12:52PM 36.3547 -79.6735 216° Southwest  Level FlightAware Approximate
12:53PM 36.3110 -79.7136 216° Southwest  Level FlightAware Approximate
12:54PM 36.2672 -79.7537 216° Southwest  Level FlightAware Approximate
12:55PM 36.2234 -79.7937 216° Southwest  Level FlightAware Approximate
12:56PM 36.1811 -79.8358 219° Southwest  Level FlightAware Approximate
12:56PM 36.1725 -79.8564 191° South 218 251 12,100  Level Atlanta Center
12:57PM 36.1387 -79.8780 219° Southwest  Level FlightAware Approximate
12:57PM 36.1303 -79.8947 216° Southwest 207 238 12,100  Level Atlanta Center
12:58PM 36.0940 -79.9162 214° Southwest  Level FlightAware Approximate
12:58PM 36.0897 -79.9353 219° Southwest 202 232 12,200  Level Atlanta Center
12:59PM 36.0489 -79.9537 214° Southwest  Level FlightAware Approximate
12:59PM 36.0494 -79.9733 217° Southwest 197 227 12,600  Level Atlanta Center
01:00PM 35.9985 -79.9754 191° South  Level FlightAware Approximate
01:00PM 35.9997 -79.9861 192° South 179 206 13,100  Level Atlanta Center
01:01PM 35.9519 -79.9936 187° South 168 193 13,600 360 Climbing Atlanta Center
01:02PM 35.9064 -80.0036 190° South 168 193 13,900 120 Climbing Atlanta Center
01:03PM 35.8608 -80.0136 190° South 178 205 13,900  Level Atlanta Center
01:04PM 35.8092 -80.0289 193° South 188 216 14,000  Climbing Atlanta Center
01:05PM 35.7553 -80.0392 189° South 194 223 14,000 -60 Level Atlanta Center
01:06PM 35.6994 -80.0522 191° South 200 230 13,900 -60 Descending Atlanta Center
01:07PM 35.6353 -80.0656 190° South 205 236 13,900 120 Level Atlanta Center
01:08PM 35.6144 -80.0717 193° South 198 228 14,100  Climbing Atlanta Center
01:08PM 35.5833 -80.0781 189° South 205 236 13,900  Descending Atlanta Center
01:08PM 35.5669 -80.0842 197° South 195 224 14,100  Climbing Atlanta Center
01:09PM 35.5317 -80.0883 185° South 200 230 13,900 -120 Descending Atlanta Center
01:09PM 35.5089 -80.0972 198° South 193 222 14,000  Climbing Atlanta Center
01:10PM 35.4756 -80.1011 185° South 200 230 13,900 60 Descending Atlanta Center
01:11PM 35.4572 -80.1072 195° South 192 221 14,100  Climbing Atlanta Center
01:11PM 35.4239 -80.1114 186° South 195 224 13,900  Descending Atlanta Center
01:12PM 35.4031 -80.1175 193° South 193 222 14,100 60 Climbing Atlanta Center
01:12PM 35.3722 -80.1239 190° South 195 224 14,000 -120 Descending Atlanta Center
01:13PM 35.3514 -80.1275 188° South 189 217 14,000  Level Atlanta Center
01:13PM 35.3203 -80.1342 190° South 195 224 14,000 60 Level Atlanta Center
01:14PM 35.2933 -80.1431 195° South 193 222 14,100  Climbing Atlanta Center
01:14PM 35.2686 -80.1467 187° South 201 231 14,000 -120 Descending Atlanta Center
01:15PM 35.2417 -80.1531 191° South 192 221 14,000  Level Atlanta Center
01:15PM 35.2208 -80.1567 188° South 201 231 14,000  Level Atlanta Center
01:16PM 35.1878 -80.1633 189° South 197 227 14,000  Level Atlanta Center
01:16PM 35.1669 -80.1694 193° South 201 231 14,000 60 Level Atlanta Center
01:17PM 35.1358 -80.1733 186° South 192 221 14,100 -60 Climbing Atlanta Center
01:18PM 35.0528 -80.1894 189° South 213 245 13,900 -120 Descending Jacksonville Center
01:19PM 35.0031 -80.2014 191° South 202 232 13,900  Level Jacksonville Center
01:20PM 34.9447 -80.2106 187° South 197 227 13,900  Level Jacksonville Center
01:21PM 34.8931 -80.2225 191° South 203 234 13,900  Level Jacksonville Center
01:22PM 34.8431 -80.2342 191° South 197 227 13,900  Level Jacksonville Center
01:23PM 34.7869 -80.2461 190° South 197 227 13,900  Level Jacksonville Center
01:24PM 34.7353 -80.2678 199° South 197 227 13,900  Level Jacksonville Center
01:25PM 34.6858 -80.2944 204° Southwest 197 227 13,900  Level Jacksonville Center
01:26PM 34.6383 -80.3211 205° Southwest 202 232 13,900  Level Jacksonville Center
01:27PM 34.5908 -80.3453 203° Southwest 197 227 13,900  Level Jacksonville Center
01:28PM 34.5417 -80.3769 208° Southwest 197 227 13,900  Level Jacksonville Center
01:29PM 34.4922 -80.4086 208° Southwest 197 227 13,900  Level Jacksonville Center
01:30PM 34.4425 -80.4328 202° Southwest 197 227 13,900  Level Jacksonville Center
01:31PM 34.3953 -80.4642 209° Southwest 197 227 13,900  Level Jacksonville Center
01:32PM 34.3456 -80.4883 202° Southwest 197 227 13,900  Level Jacksonville Center
01:33PM 34.2961 -80.5147 204° Southwest 197 227 13,900  Level Jacksonville Center
01:34PM 34.2464 -80.5414 204° Southwest 197 227 13,900  Level Jacksonville Center
01:35PM 34.1947 -80.5728 207° Southwest 197 227 13,900  Level Jacksonville Center
01:36PM 34.1453 -80.6017 206° Southwest 197 227 13,900  Level Jacksonville Center
01:37PM 34.0978 -80.6281 205° Southwest 197 227 13,900  Level Jacksonville Center
01:38PM 34.0461 -80.6569 205° Southwest 197 227 13,900  Level Jacksonville Center
01:39PM 33.9986 -80.6808 203° Southwest 197 227 13,900  Level Jacksonville Center
01:40PM 33.9489 -80.7119 207° Southwest 197 227 13,900  Level Jacksonville Center
01:41PM 33.8994 -80.7383 204° Southwest 197 227 13,900  Level Jacksonville Center
01:42PM 33.8478 -80.7694 207° Southwest 197 227 13,900  Level Jacksonville Center
01:43PM 33.7981 -80.7983 206° Southwest 197 227 13,900  Level Jacksonville Center
01:44PM 33.7614 -80.8442 226° Southwest 197 227 13,900  Level Jacksonville Center
01:45PM 33.7372 -80.9072 245° Southwest 196 226 13,900  Level Jacksonville Center
01:46PM 33.7175 -80.9675 249° West 201 231 13,900  Level Jacksonville Center
01:47PM 33.6953 -81.0278 246° West 206 237 13,900  Level Jacksonville Center
01:48PM 33.6711 -81.0908 245° Southwest 206 237 13,900  Level Jacksonville Center
01:49PM 33.6492 -81.1511 246° West 201 231 13,900  Level Jacksonville Center
01:50PM 33.6250 -81.2164 246° West 201 231 13,900  Level Jacksonville Center
01:51PM 33.6028 -81.2767 246° West 201 231 13,900  Level Jacksonville Center
01:52PM 33.5786 -81.3394 245° Southwest 206 237 13,900  Level Jacksonville Center
01:53PM 33.5564 -81.4022 247° West 206 237 14,000  Climbing Jacksonville Center
01:54PM 33.5319 -81.4622 244° Southwest 206 237 14,000  Level Jacksonville Center
01:56PM 33.4647 -81.5736 234° Southwest 205 236 14,000  Level Atlanta Center
01:57PM 33.4242 -81.6319 230° Southwest 212 244 14,000  Level Atlanta Center
01:58PM 33.3875 -81.6828 229° Southwest 212 244 14,000 -60 Level Atlanta Center
01:59PM 33.3511 -81.7336 229° Southwest 212 244 13,900  Descending Atlanta Center
02:00PM 33.3164 -81.7842 231° Southwest 212 244 14,000  Climbing Atlanta Center
02:01PM 33.2778 -81.8372 229° Southwest 212 244 13,900  Descending Atlanta Center
02:02PM 33.2411 -81.8906 231° Southwest 212 244 14,000  Climbing Atlanta Center
02:03PM 33.2044 -81.9408 229° Southwest 212 244 13,900  Descending Atlanta Center
02:04PM 33.1589 -81.9719 210° Southwest 203 234 14,000  Climbing Atlanta Center
02:05PM 33.1050 -81.9931 198° South 197 227 14,000  Level Atlanta Center
02:06PM 33.0511 -82.0142 198° South 197 227 14,000  Level Atlanta Center
02:07PM 32.9992 -82.0325 196° South 202 232 14,000  Level Atlanta Center
02:08PM 32.9433 -82.0536 198° South 207 238 14,000  Level Atlanta Center
02:09PM 32.8936 -82.0747 200° South 207 238 14,000  Level Atlanta Center
02:10PM 32.8375 -82.0931 195° South 207 238 14,000  Level Atlanta Center
02:11PM 32.7836 -82.1142 198° South 207 238 14,000  Level Atlanta Center
02:12PM 32.7317 -82.1350 199° South 207 238 14,000  Level Atlanta Center
02:13PM 32.6756 -82.1561 198° South 207 238 14,000  Level Atlanta Center
02:14PM 32.6239 -82.1767 199° South 207 238 14,000  Level Atlanta Center
02:15PM 32.5697 -82.1978 198° South 207 238 14,000  Level Atlanta Center
02:16PM 32.5136 -82.2161 195° South 207 238 14,000  Level Atlanta Center
02:19PM 32.3864 -82.2678 199° South 214 246 14,000  Level Jacksonville Center
02:20PM 32.3342 -82.2853 196° South 209 241 14,000  Level Jacksonville Center
02:21PM 32.2842 -82.3028 196° South 209 241 14,000  Level Jacksonville Center
02:22PM 32.2278 -82.3228 197° South 204 235 14,000  Level Jacksonville Center
02:23PM 32.1758 -82.3453 200° South 204 235 14,000  Level Jacksonville Center
02:24PM 32.1217 -82.3628 195° South 204 235 14,000  Level Jacksonville Center
02:25PM 32.0694 -82.3850 200° South 210 242 14,000  Level Jacksonville Center
02:26PM 32.0153 -82.4025 195° South 210 242 14,000  Level Jacksonville Center
02:27PM 31.9589 -82.4225 197° South 210 242 14,000  Level Jacksonville Center
02:28PM 31.9089 -82.4422 199° South 210 242 14,000  Level Jacksonville Center
02:29PM 31.8547 -82.4619 197° South 210 242 14,000  Level Jacksonville Center
02:30PM 31.8006 -82.4819 197° South 205 236 14,000  Level Jacksonville Center
02:31PM 31.7464 -82.5017 197° South 205 236 14,000  Level Jacksonville Center
02:32PM 31.6919 -82.5214 197° South 205 236 14,000  Level Jacksonville Center
02:33PM 31.6419 -82.5411 199° South 205 236 14,000  Level Jacksonville Center
02:34PM 31.5878 -82.5608 197° South 203 234 14,000  Level Jacksonville Center
02:34PM 31.5939 -82.5561 33° Northeast 205 236 14,000  Level Jacksonville Center
02:34PM 31.5647 -82.5683 200° South 203 234 14,000  Level Jacksonville Center
02:35PM 31.5378 -82.5781 197° South 205 236 14,000  Level Jacksonville Center
02:35PM 31.5106 -82.5903 201° Southwest 203 234 14,000  Level Jacksonville Center
02:36PM 31.4814 -82.6003 196° South 210 242 14,000  Level Jacksonville Center
02:36PM 31.4564 -82.6078 194° South 205 236 14,000  Level Jacksonville Center
02:37PM 31.4292 -82.6222 204° Southwest 204 235 14,000 -120 Level Jacksonville Center
02:37PM 31.4022 -82.6369 205° Southwest 205 236 13,900 -420 Descending Jacksonville Center
02:38PM 31.3769 -82.6492 202° Southwest 210 242 13,600 -660 Descending Jacksonville Center
02:38PM 31.3542 -82.6614 205° Southwest 214 246 13,300 -840 Descending Jacksonville Center
02:39PM 31.3186 -82.6786 202° Southwest 220 253 12,800 -840 Descending Jacksonville Center
02:39PM 31.2875 -82.6956 205° Southwest 227 261 12,400 -840 Descending Jacksonville Center
02:40PM 31.2581 -82.7128 207° Southwest 231 266 12,000 -840 Descending Jacksonville Center
02:40PM 31.2331 -82.7322 214° Southwest 231 266 11,600 -840 Descending Jacksonville Center
02:41PM 31.2103 -82.7567 223° Southwest 231 266 11,200 -840 Descending Jacksonville Center
02:41PM 31.1811 -82.7808 215° Southwest 232 267 10,800 -720 Descending Jacksonville Center
02:42PM 31.1600 -82.8053 225° Southwest 237 273 10,500 -780 Descending Jacksonville Center
02:42PM 31.1372 -82.8222 212° Southwest 229 264 10,100 -720 Descending Jacksonville Center
02:43PM 31.1039 -82.8417 207° Southwest 237 273 9,800 -600 Descending Jacksonville Center
02:43PM 31.0808 -82.8586 212° Southwest 226 260 9,500 -600 Descending Jacksonville Center
02:44PM 31.0203 -82.8903 204° Southwest 225 259 9,000 -240 Descending Jacksonville Center
02:45PM 30.9617 -82.9192 203° Southwest 213 245 9,100 -360 Climbing Jacksonville Center
02:46PM 30.9056 -82.9411 199° South 218 251 8,300 -840 Descending Jacksonville Center
02:47PM 30.8511 -82.9700 204° Southwest 226 260 7,500 -1,020 Descending Jacksonville Center
02:47PM 30.8447 -82.9725 199° South 229 264 7,300 -1,140 Descending Jacksonville Center
02:48PM 30.7947 -82.9989 204° Southwest 228 262 6,400 -960 Descending Jacksonville Center
02:49PM 30.7342 -83.0061 186° South 228 262 5,500 -900 Descending Jacksonville Center